Time;durP1;ratioP1;P1;durP2;ratioP2;P2;SDS_P1;SDS_P2;PMS_P1;PMS_P2;Temp;Humidity;BMP_temperature;BMP_pressure;BME280_temperature;BME280_humidity;BME280_pressure;Samples;Min_cycle;Max_cycle;Signal;HPM_P1;HPM_P2
2021/06/05 00:01:22;;;;;;;0.17;0.17;;;;;;;;;;6192065;23;20015;-90
2021/06/05 00:03:49;;;;;;;0.17;0.17;;;;;;;;;;6246133;23;20689;-89
2021/06/05 00:06:17;;;;;;;0.08;0.08;;;;;;;;;;6218702;23;20122;-89
2021/06/05 00:08:44;;;;;;;0.20;0.20;;;;;;;;;;6218241;23;20012;-89
2021/06/05 00:11:10;;;;;;;0.20;0.10;;;;;;;;;;6191414;23;20039;-89
2021/06/05 00:13:41;;;;;;;0.03;0.03;;;;;;;;;;6241113;23;20307;-90
2021/06/05 00:16:09;;;;;;;0.57;0.25;;;;;;;;;;6240339;23;20038;-90
2021/06/05 00:18:36;;;;;;;0.20;0.20;;;;;;;;;;6214900;23;20008;-90
2021/06/05 00:21:04;;;;;;;0.00;0.00;;;;;;;;;;6213274;23;20008;-90
2021/06/05 00:23:30;;;;;;;0.00;0.00;;;;;;;;;;6240559;23;20493;-90
2021/06/05 00:25:58;;;;;;;0.63;0.40;;;;;;;;;;6187981;23;20019;-89
2021/06/05 00:28:24;;;;;;;;;;;;;;;;;;6190731;23;20098;-89
2021/06/05 00:30:50;;;;;;;0.00;0.00;;;;;;;;;;6214606;23;19907;-90
2021/06/05 00:33:16;;;;;;;0.00;0.00;;;;;;;;;;6240884;23;20015;-90
2021/06/05 00:35:43;;;;;;;0.00;0.00;;;;;;;;;;6191062;23;20008;-90
2021/06/05 00:38:09;;;;;;;0.20;0.20;;;;;;;;;;6240213;22;20008;-90
2021/06/05 00:40:41;;;;;;;0.25;0.15;;;;;;;;;;6242732;23;20035;-90
2021/06/05 00:43:08;;;;;;;0.20;0.20;;;;;;;;;;6238488;23;20516;-90
2021/06/05 00:45:36;;;;;;;0.40;0.40;;;;;;;;;;6213314;23;20441;-90
2021/06/05 00:48:03;;;;;;;0.28;0.28;;;;;;;;;;6241208;23;20056;-90
2021/06/05 00:50:29;;;;;;;0.28;0.28;;;;;;;;;;6215101;23;20011;-89
2021/06/05 00:52:56;;;;;;;0.52;0.50;;;;;;;;;;6213102;23;20008;-90
2021/06/05 00:55:24;;;;;;;0.22;0.22;;;;;;;;;;6238694;23;20028;-90
2021/06/05 00:57:50;;;;;;;0.00;0.00;;;;;;;;;;6214438;23;20078;-90
2021/06/05 01:00:19;;;;;;;0.65;0.43;;;;;;;;;;6215239;23;20004;-91
2021/06/05 01:02:45;;;;;;;0.75;0.73;;;;;;;;;;6241111;23;20039;-90
2021/06/05 01:05:11;;;;;;;0.08;0.08;;;;;;;;;;6186959;23;20404;-90
2021/06/05 01:07:39;;;;;;;0.10;0.10;;;;;;;;;;6212635;23;20345;-90
2021/06/05 01:10:08;;;;;;;0.20;0.20;;;;;;;;;;6239926;23;20008;-90
2021/06/05 01:12:34;;;;;;;0.00;0.00;;;;;;;;;;6212611;23;20020;-90
2021/06/05 01:15:07;;;;;;;0.25;0.25;;;;;;;;;;6212562;23;20008;-89
2021/06/05 01:17:35;;;;;;;0.43;0.43;;;;;;;;;;6215908;23;20019;-90
2021/06/05 01:20:05;;;;;;;0.40;0.40;;;;;;;;;;6212508;23;20016;-90
2021/06/05 01:22:40;;;;;;;0.30;0.30;;;;;;;;;;6216849;23;20012;-90
2021/06/05 01:25:06;;;;;;;0.00;0.00;;;;;;;;;;6242387;23;20000;-90
2021/06/05 01:27:36;;;;;;;0.75;0.45;;;;;;;;;;6243707;23;20321;-90
2021/06/05 01:30:10;;;;;;;0.25;0.25;;;;;;;;;;6214758;23;20004;-90
2021/06/05 01:32:37;;;;;;;0.30;0.20;;;;;;;;;;6243483;23;20004;-90
2021/06/05 01:35:04;;;;;;;0.10;0.10;;;;;;;;;;6188233;23;20401;-89
2021/06/05 01:37:33;;;;;;;0.10;0.10;;;;;;;;;;6218063;23;20004;-90
2021/06/05 01:40:00;;;;;;;0.22;0.22;;;;;;;;;;6215549;23;20066;-90
2021/06/05 01:42:28;;;;;;;0.20;0.20;;;;;;;;;;6242863;23;20402;-90
2021/06/05 01:44:56;;;;;;;0.10;0.10;;;;;;;;;;6238885;23;20457;-90
2021/06/05 01:47:23;;;;;;;1.08;0.75;;;;;;;;;;6215457;23;20008;-90
2021/06/05 01:49:49;;;;;;;0.52;0.25;;;;;;;;;;6213987;23;20019;-90
2021/06/05 01:52:21;;;;;;;0.20;0.20;;;;;;;;;;6216226;23;20004;-90
2021/06/05 01:54:53;;;;;;;0.65;0.65;;;;;;;;;;6213893;23;20468;-90
2021/06/05 01:57:21;;;;;;;0.82;0.82;;;;;;;;;;6216539;23;20446;-90
2021/06/05 01:59:48;;;;;;;0.10;0.10;;;;;;;;;;6214371;23;20016;-90
2021/06/05 02:02:14;;;;;;;0.15;0.15;;;;;;;;;;6213740;23;20023;-90
2021/06/05 02:04:42;;;;;;;0.28;0.28;;;;;;;;;;6192015;23;20437;-90
2021/06/05 02:07:08;;;;;;;;;;;;;;;;;;6191253;23;20024;-90
2021/06/05 02:09:34;;;;;;;0.10;0.10;;;;;;;;;;6216074;23;20343;-90
2021/06/05 02:12:03;;;;;;;0.10;0.10;;;;;;;;;;6217192;23;20016;-90
2021/06/05 02:14:41;;;;;;;0.08;0.08;;;;;;;;;;6215630;23;20011;-90
2021/06/05 02:17:09;;;;;;;0.40;0.40;;;;;;;;;;6216439;23;20016;-90
2021/06/05 02:19:43;;;;;;;1.00;0.60;;;;;;;;;;6213362;23;20004;-90
2021/06/05 02:22:13;;;;;;;0.13;0.13;;;;;;;;;;6213456;23;20008;-90
2021/06/05 02:24:43;;;;;;;0.55;0.55;;;;;;;;;;6216846;23;20016;-90
2021/06/05 02:27:10;;;;;;;0.65;0.55;;;;;;;;;;6218134;23;20012;-87
2021/06/05 02:29:39;;;;;;;0.25;0.20;;;;;;;;;;6227327;23;20038;-89
2021/06/05 02:32:07;;;;;;;0.20;0.20;;;;;;;;;;6223210;23;20019;-89
2021/06/05 02:34:34;;;;;;;0.05;0.05;;;;;;;;;;6234870;23;20012;-87
2021/06/05 02:37:03;;;;;;;0.00;0.00;;;;;;;;;;6233164;22;20027;-89
2021/06/05 02:39:29;;;;;;;4.82;2.97;;;;;;;;;;6224267;23;20011;-87
2021/06/05 02:41:56;;;;;;;2.03;0.43;;;;;;;;;;6218017;23;20028;-89
2021/06/05 02:44:24;;;;;;;0.00;0.00;;;;;;;;;;6215068;23;20019;-90
2021/06/05 02:46:51;;;;;;;0.30;0.20;;;;;;;;;;6214557;23;20019;-90
2021/06/05 02:49:18;;;;;;;0.35;0.35;;;;;;;;;;6190762;23;20020;-90
2021/06/05 02:51:45;;;;;;;0.30;0.30;;;;;;;;;;6216001;23;20012;-90
2021/06/05 02:54:11;;;;;;;;;;;;;;;;;;6212778;23;20529;-90
2021/06/05 02:56:38;;;;;;;0.32;0.25;;;;;;;;;;6215517;23;19930;-91
2021/06/05 02:59:04;;;;;;;0.30;0.23;;;;;;;;;;6189558;23;20498;-89
2021/06/05 03:01:30;;;;;;;2.10;0.80;;;;;;;;;;6213829;23;20004;-90
2021/06/05 03:03:57;;;;;;;0.10;0.10;;;;;;;;;;6211302;23;20247;-90
2021/06/05 03:06:23;;;;;;;0.05;0.05;;;;;;;;;;6214623;23;20012;-90
2021/06/05 03:08:49;;;;;;;0.50;0.50;;;;;;;;;;6213437;23;20008;-90
2021/06/05 03:11:18;;;;;;;0.00;0.00;;;;;;;;;;6214237;23;20095;-90
2021/06/05 03:13:45;;;;;;;0.17;0.17;;;;;;;;;;6215480;23;20104;-90
2021/06/05 03:16:12;;;;;;;0.43;0.43;;;;;;;;;;6216224;23;20004;-90
2021/06/05 03:18:39;;;;;;;2.05;1.63;;;;;;;;;;6189224;23;20337;-90
2021/06/05 03:21:07;;;;;;;0.43;0.43;;;;;;;;;;6214054;23;20062;-90
2021/06/05 03:23:34;;;;;;;0.40;0.40;;;;;;;;;;6213597;23;20016;-90
2021/06/05 03:26:01;;;;;;;0.10;0.10;;;;;;;;;;6211541;23;20016;-90
2021/06/05 03:28:28;;;;;;;1.08;0.52;;;;;;;;;;6213063;23;20017;-90
2021/06/05 03:30:55;;;;;;;0.17;0.10;;;;;;;;;;6211987;23;20460;-90
2021/06/05 03:33:22;;;;;;;0.00;0.00;;;;;;;;;;6215016;23;20016;-89
2021/06/05 03:35:49;;;;;;;0.20;0.20;;;;;;;;;;6212100;23;20012;-90
2021/06/05 03:38:16;;;;;;;0.35;0.35;;;;;;;;;;6215338;23;20095;-88
2021/06/05 03:40:42;;;;;;;0.00;0.00;;;;;;;;;;6215142;23;20008;-90
2021/06/05 03:43:09;;;;;;;0.70;0.70;;;;;;;;;;6213841;23;20018;-90
2021/06/05 03:45:35;;;;;;;0.43;0.43;;;;;;;;;;6186722;23;20086;-90
2021/06/05 03:48:02;;;;;;;0.10;0.10;;;;;;;;;;6214423;23;20012;-90
2021/06/05 03:50:30;;;;;;;0.47;0.40;;;;;;;;;;6239783;23;20018;-90
2021/06/05 03:52:57;;;;;;;0.75;0.40;;;;;;;;;;6211527;23;20035;-90
2021/06/05 03:55:23;;;;;;;0.60;0.55;;;;;;;;;;6188885;23;20381;-90
2021/06/05 03:57:50;;;;;;;0.40;0.35;;;;;;;;;;6212296;23;20464;-89
2021/06/05 04:00:19;;;;;;;0.77;0.77;;;;;;;;;;6238337;23;20000;-90
2021/06/05 04:02:45;;;;;;;0.20;0.20;;;;;;;;;;6212378;23;20004;-90
2021/06/05 04:05:12;;;;;;;0.52;0.28;;;;;;;;;;6188622;23;20022;-91
2021/06/05 04:07:38;;;;;;;0.53;0.33;;;;;;;;;;6214782;23;20082;-90
2021/06/05 04:10:05;;;;;;;0.30;0.30;;;;;;;;;;6187451;23;20457;-90
2021/06/05 04:12:32;;;;;;;0.15;0.15;;;;;;;;;;6215611;23;20016;-90
2021/06/05 04:14:58;;;;;;;2.22;0.75;;;;;;;;;;6214085;23;20025;-90
2021/06/05 04:17:24;;;;;;;0.98;0.57;;;;;;;;;;6190879;23;20010;-89
2021/06/05 04:19:51;;;;;;;1.50;1.02;;;;;;;;;;6212143;23;20019;-89
2021/06/05 04:22:17;;;;;;;2.20;0.85;;;;;;;;;;6215518;23;20017;-90
2021/06/05 04:24:43;;;;;;;0.00;0.00;;;;;;;;;;6190064;23;20115;-90
2021/06/05 04:27:10;;;;;;;0.38;0.38;;;;;;;;;;6215465;23;20036;-90
2021/06/05 04:29:36;;;;;;;0.55;0.55;;;;;;;;;;6215320;23;20069;-89
2021/06/05 04:32:04;;;;;;;0.10;0.10;;;;;;;;;;6238661;23;20083;-89
2021/06/05 04:34:30;;;;;;;0.45;0.45;;;;;;;;;;6215267;23;20026;-89
2021/06/05 04:36:56;;;;;;;2.63;0.50;;;;;;;;;;6213940;22;20323;-90
2021/06/05 04:39:22;;;;;;;0.80;0.52;;;;;;;;;;6189903;23;20540;-89
2021/06/05 04:41:49;;;;;;;0.70;0.50;;;;;;;;;;6187966;23;20090;-89
2021/06/05 04:44:16;;;;;;;0.70;0.63;;;;;;;;;;6242289;23;20079;-89
2021/06/05 04:46:42;;;;;;;0.15;0.15;;;;;;;;;;6242158;23;20079;-90
2021/06/05 04:49:09;;;;;;;0.20;0.20;;;;;;;;;;6213564;23;20023;-89
2021/06/05 04:51:37;;;;;;;1.67;1.08;;;;;;;;;;6242316;23;20057;-88
2021/06/05 04:54:03;;;;;;;0.60;0.60;;;;;;;;;;6214825;23;20008;-88
2021/06/05 04:56:46;;;;;;;0.10;0.10;;;;;;;;;;6215932;23;20012;-89
2021/06/05 04:59:14;;;;;;;1.00;0.93;;;;;;;;;;6214442;23;20008;-89
2021/06/05 05:01:40;;;;;;;0.17;0.17;;;;;;;;;;6239077;23;20079;-88
2021/06/05 05:04:07;;;;;;;0.00;0.00;;;;;;;;;;6213575;23;20019;-88
2021/06/05 05:06:34;;;;;;;0.73;0.73;;;;;;;;;;6215326;23;20091;-88
2021/06/05 05:09:01;;;;;;;0.13;0.13;;;;;;;;;;6213666;23;20012;-88
2021/06/05 05:11:27;;;;;;;0.68;0.32;;;;;;;;;;6204740;23;20431;-89
2021/06/05 05:13:54;;;;;;;0.00;0.00;;;;;;;;;;6182995;23;20012;-88
2021/06/05 05:16:21;;;;;;;0.40;0.40;;;;;;;;;;6185353;23;20016;-88
2021/06/05 05:18:48;;;;;;;0.20;0.20;;;;;;;;;;6183415;23;20020;-88
2021/06/05 05:21:16;;;;;;;0.80;0.55;;;;;;;;;;6211394;23;20084;-88
2021/06/05 05:23:42;;;;;;;1.02;0.80;;;;;;;;;;6210638;23;20034;-88
2021/06/05 05:26:09;;;;;;;0.20;0.20;;;;;;;;;;6182811;23;20026;-88
2021/06/05 05:28:36;;;;;;;11.38;1.15;;;;;;;;;;6183845;23;20009;-88
2021/06/05 05:31:04;;;;;;;0.80;0.55;;;;;;;;;;6182992;23;20184;-88
2021/06/05 05:33:34;;;;;;;0.47;0.47;;;;;;;;;;6184446;23;20020;-87
2021/06/05 05:36:01;;;;;;;0.25;0.20;;;;;;;;;;6184307;23;20096;-88
2021/06/05 05:38:27;;;;;;;0.00;0.00;;;;;;;;;;6211795;23;20374;-88
2021/06/05 05:40:53;;;;;;;0.30;0.30;;;;;;;;;;6183902;23;20016;-88
2021/06/05 05:43:20;;;;;;;0.40;0.30;;;;;;;;;;6184080;23;20014;-88
2021/06/05 05:45:46;;;;;;;6.53;0.52;;;;;;;;;;6186291;23;20343;-88
2021/06/05 05:48:13;;;;;;;1.25;0.93;;;;;;;;;;6211836;23;20009;-88
2021/06/05 05:50:40;;;;;;;1.17;1.10;;;;;;;;;;6184305;23;20335;-88
2021/06/05 05:53:07;;;;;;;0.28;0.20;;;;;;;;;;6184066;23;20017;-88
2021/06/05 05:55:33;;;;;;;0.07;0.07;;;;;;;;;;6213042;23;20031;-88
2021/06/05 05:58:07;;;;;;;0.22;0.22;;;;;;;;;;6208664;23;20227;-88
2021/06/05 06:00:34;;;;;;;0.15;0.15;;;;;;;;;;6210576;23;20000;-88
2021/06/05 06:03:00;;;;;;;;;;;;;;;;;;6209371;23;20008;-87
2021/06/05 06:05:26;;;;;;;0.17;0.17;;;;;;;;;;6184243;23;19908;-88
2021/06/05 06:07:53;;;;;;;0.65;0.50;;;;;;;;;;6211068;23;20009;-88
2021/06/05 06:10:21;;;;;;;0.00;0.00;;;;;;;;;;6183648;23;20094;-88
2021/06/05 06:12:47;;;;;;;0.28;0.28;;;;;;;;;;6237216;23;20087;-88
2021/06/05 06:15:19;;;;;;;0.38;0.38;;;;;;;;;;6189490;23;20480;-88
2021/06/05 06:17:45;;;;;;;1.75;0.40;;;;;;;;;;6241267;23;20000;-88
2021/06/05 06:20:24;;;;;;;1.38;0.52;;;;;;;;;;6212506;23;20501;-88
2021/06/05 06:22:50;;;;;;;1.20;0.82;;;;;;;;;;6211920;23;20008;-87
2021/06/05 06:25:19;;;;;;;0.90;0.45;;;;;;;;;;6191490;23;20518;-88
2021/06/05 06:27:47;;;;;;;0.30;0.30;;;;;;;;;;6212258;23;20039;-87
2021/06/05 06:30:15;;;;;;;0.20;0.20;;;;;;;;;;6236952;23;20008;-87
2021/06/05 06:32:41;;;;;;;0.35;0.22;;;;;;;;;;6237874;23;20449;-87
2021/06/05 06:35:07;;;;;;;0.40;0.30;;;;;;;;;;6187620;23;20031;-87
2021/06/05 06:37:33;;;;;;;0.70;0.43;;;;;;;;;;6239762;22;20054;-87
2021/06/05 06:40:00;;;;;;;0.45;0.20;;;;;;;;;;6237158;23;20172;-86
2021/06/05 06:42:26;;;;;;;1.27;0.65;;;;;;;;;;6238804;23;20004;-88
2021/06/05 06:44:52;;;;;;;0.85;0.77;;;;;;;;;;6211576;23;20020;-88
2021/06/05 06:47:19;;;;;;;0.25;0.25;;;;;;;;;;6239042;23;20087;-88
2021/06/05 06:49:45;;;;;;;2.97;1.20;;;;;;;;;;6210268;23;20019;-88
2021/06/05 06:52:11;;;;;;;0.35;0.20;;;;;;;;;;6212057;23;20358;-87
2021/06/05 06:54:38;;;;;;;1.27;0.68;;;;;;;;;;6187301;23;20028;-88
2021/06/05 06:57:04;;;;;;;0.63;0.30;;;;;;;;;;6186091;23;20031;-88
2021/06/05 06:59:32;;;;;;;;;;;;;;;;;;6187107;23;20016;-88
2021/06/05 07:01:59;;;;;;;0.57;0.30;;;;;;;;;;6237908;23;20399;-88
2021/06/05 07:04:25;;;;;;;0.28;0.13;;;;;;;;;;6238928;23;20008;-88
2021/06/05 07:06:51;;;;;;;1.20;0.52;;;;;;;;;;6187233;23;20016;-87
2021/06/05 07:09:18;;;;;;;0.50;0.20;;;;;;;;;;6239037;23;20039;-87
2021/06/05 07:11:44;;;;;;;0.20;0.10;;;;;;;;;;6187695;23;20406;-86
2021/06/05 07:14:11;;;;;;;0.65;0.60;;;;;;;;;;6188589;23;20020;-86
2021/06/05 07:16:38;;;;;;;0.57;0.52;;;;;;;;;;6215061;23;20503;-88
2021/06/05 07:19:06;;;;;;;1.58;1.48;;;;;;;;;;6213655;23;20031;-87
2021/06/05 07:21:33;;;;;;;1.55;0.63;;;;;;;;;;6237772;23;20031;-86
2021/06/05 07:23:59;;;;;;;0.20;0.10;;;;;;;;;;6184177;23;20027;-86
2021/06/05 07:26:26;;;;;;;1.30;0.20;;;;;;;;;;6238841;23;20010;-87
2021/06/05 07:28:54;;;;;;;0.15;0.10;;;;;;;;;;6210863;23;20008;-87
2021/06/05 07:31:23;;;;;;;0.63;0.47;;;;;;;;;;6238116;23;20035;-87
2021/06/05 07:33:50;;;;;;;0.00;0.00;;;;;;;;;;6211424;23;20012;-87
2021/06/05 07:36:22;;;;;;;2.72;0.65;;;;;;;;;;6211434;23;20501;-87
2021/06/05 07:38:48;;;;;;;0.35;0.35;;;;;;;;;;6210789;23;20356;-87
2021/06/05 07:41:14;;;;;;;0.10;0.10;;;;;;;;;;6214130;23;20527;-87
2021/06/05 07:43:41;;;;;;;0.70;0.45;;;;;;;;;;6240367;23;20008;-86
2021/06/05 07:46:07;;;;;;;1.00;0.45;;;;;;;;;;6210404;23;20015;-87
2021/06/05 07:48:35;;;;;;;1.38;0.30;;;;;;;;;;6242080;23;20022;-87
2021/06/05 07:51:01;;;;;;;0.38;0.28;;;;;;;;;;6187117;23;20019;-87
2021/06/05 07:53:28;;;;;;;0.65;0.32;;;;;;;;;;6212924;23;20016;-86
2021/06/05 07:55:54;;;;;;;0.35;0.20;;;;;;;;;;6211343;23;20492;-87
2021/06/05 07:58:20;;;;;;;0.30;0.20;;;;;;;;;;6239015;23;20074;-87
2021/06/05 08:00:48;;;;;;;;;;;;;;;;;;6237243;23;20031;-88
2021/06/05 08:03:19;;;;;;;0.20;0.20;;;;;;;;;;6236266;23;19907;-86
2021/06/05 08:05:46;;;;;;;1.05;0.40;;;;;;;;;;6207488;23;20077;-85
2021/06/05 08:08:12;;;;;;;;;;;;;;;;;;6211997;23;20008;-83
2021/06/05 08:10:39;;;;;;;0.30;0.22;;;;;;;;;;6234717;23;20394;-84
2021/06/05 08:13:06;;;;;;;0.40;0.32;;;;;;;;;;6207380;23;20464;-83
2021/06/05 08:15:34;;;;;;;0.35;0.30;;;;;;;;;;6236846;23;20066;-84
2021/06/05 08:18:01;;;;;;;0.40;0.32;;;;;;;;;;6207193;23;20429;-85
2021/06/05 08:20:30;;;;;;;0.30;0.30;;;;;;;;;;6210746;23;20013;-82
2021/06/05 08:22:57;;;;;;;0.52;0.45;;;;;;;;;;6239957;23;20011;-85
2021/06/05 08:25:23;;;;;;;2.72;1.52;;;;;;;;;;6211783;23;20011;-84
2021/06/05 08:27:50;;;;;;;1.75;0.47;;;;;;;;;;6212572;23;20327;-83
2021/06/05 08:30:21;;;;;;;0.73;0.57;;;;;;;;;;6212005;23;20012;-83
2021/06/05 08:32:48;;;;;;;0.10;0.10;;;;;;;;;;6237148;23;20015;-83
2021/06/05 08:35:15;;;;;;;1.45;0.47;;;;;;;;;;6237655;23;20032;-81
2021/06/05 08:37:41;;;;;;;0.55;0.38;;;;;;;;;;6210661;23;20012;-84
2021/06/05 08:40:10;;;;;;;0.45;0.35;;;;;;;;;;6210871;23;20430;-83
2021/06/05 08:42:42;;;;;;;0.30;0.25;;;;;;;;;;6214814;23;20015;-82
2021/06/05 08:45:10;;;;;;;2.88;0.98;;;;;;;;;;6188034;23;20016;-84
2021/06/05 08:47:37;;;;;;;0.40;0.30;;;;;;;;;;6212808;23;20040;-82
2021/06/05 08:50:08;;;;;;;0.73;0.50;;;;;;;;;;6215201;23;20043;-82
2021/06/05 08:52:51;;;;;;;0.45;0.32;;;;;;;;;;6210742;23;20008;-82
2021/06/05 08:55:34;;;;;;;0.20;0.20;;;;;;;;;;6213550;23;20015;-82
2021/06/05 08:58:13;;;;;;;0.10;0.05;;;;;;;;;;6212404;23;20393;-82
2021/06/05 09:00:43;;;;;;;0.50;0.40;;;;;;;;;;6240537;23;20008;-82
2021/06/05 09:03:20;;;;;;;0.45;0.35;;;;;;;;;;6238434;23;20381;-82
2021/06/05 09:05:46;;;;;;;;;;;;;;;;;;6239797;23;20016;-82
2021/06/05 09:08:18;;;;;;;1.45;1.10;;;;;;;;;;6213831;23;20333;-81
2021/06/05 09:10:45;;;;;;;0.15;0.15;;;;;;;;;;6189082;23;20012;-82
2021/06/05 09:13:11;;;;;;;0.43;0.32;;;;;;;;;;6240627;23;20042;-82
2021/06/05 09:15:37;;;;;;;;;;;;;;;;;;6240418;23;20008;-83
2021/06/05 09:18:05;;;;;;;0.40;0.20;;;;;;;;;;6239179;23;19908;-83
2021/06/05 09:20:34;;;;;;;0.17;0.08;;;;;;;;;;6239465;23;20000;-84
2021/06/05 09:23:02;;;;;;;0.60;0.57;;;;;;;;;;6237761;23;20054;-83
2021/06/05 09:25:37;;;;;;;0.20;0.20;;;;;;;;;;6213300;23;20007;-83
2021/06/05 09:28:22;;;;;;;0.28;0.15;;;;;;;;;;6238673;23;20026;-83
2021/06/05 09:30:50;;;;;;;0.57;0.20;;;;;;;;;;6213213;23;20341;-92
2021/06/05 09:33:37;;;;;;;0.52;0.32;;;;;;;;;;6213096;23;20035;-83
2021/06/05 09:36:03;;;;;;;;;;;;;;;;;;6211928;23;20054;-83
2021/06/05 09:38:38;;;;;;;0.40;0.30;;;;;;;;;;6211383;23;20317;-83
2021/06/05 09:41:07;;;;;;;2.40;0.43;;;;;;;;;;6238902;23;20015;-83
2021/06/05 09:43:37;;;;;;;0.22;0.20;;;;;;;;;;6238947;23;20004;-83
2021/06/05 09:46:10;;;;;;;0.63;0.45;;;;;;;;;;6212519;23;20035;-83
2021/06/05 09:48:39;;;;;;;0.50;0.30;;;;;;;;;;6212012;23;20016;-83
2021/06/05 09:51:25;;;;;;;0.20;0.10;;;;;;;;;;6238896;23;20031;-83
2021/06/05 09:54:01;;;;;;;1.65;0.40;;;;;;;;;;6237696;23;20008;-83
2021/06/05 09:56:30;;;;;;;0.40;0.32;;;;;;;;;;6212737;23;20503;-83
2021/06/05 09:59:20;;;;;;;0.57;0.43;;;;;;;;;;6238193;23;20018;-83
2021/06/05 10:02:01;;;;;;;7.75;1.08;;;;;;;;;;6225906;23;20019;-83
2021/06/05 10:04:29;;;;;;;0.40;0.30;;;;;;;;;;6212719;23;20008;-83
2021/06/05 10:06:57;;;;;;;1.15;0.65;;;;;;;;;;6211348;23;20008;-83
2021/06/05 10:09:27;;;;;;;0.55;0.40;;;;;;;;;;6212942;23;20497;-83
2021/06/05 10:12:12;;;;;;;0.63;0.50;;;;;;;;;;6237857;23;20012;-82
2021/06/05 10:14:58;;;;;;;0.77;0.70;;;;;;;;;;6239049;23;20012;-83
2021/06/05 10:17:24;;;;;;;0.40;0.25;;;;;;;;;;6239642;23;20003;-83
2021/06/05 10:20:00;;;;;;;0.40;0.40;;;;;;;;;;6211638;23;20011;-83
2021/06/05 10:22:27;;;;;;;0.55;0.50;;;;;;;;;;6213141;23;20032;-83
2021/06/05 10:24:56;;;;;;;0.43;0.40;;;;;;;;;;6236558;23;20008;-83
2021/06/05 10:27:26;;;;;;;3.13;1.80;;;;;;;;;;6212651;23;20008;-83
2021/06/05 10:29:54;;;;;;;0.25;0.20;;;;;;;;;;6210166;23;20015;-83
2021/06/05 10:32:23;;;;;;;0.30;0.20;;;;;;;;;;6237663;23;20004;-82
2021/06/05 10:34:56;;;;;;;0.30;0.30;;;;;;;;;;6208145;23;20520;-83
2021/06/05 10:37:24;;;;;;;0.22;0.22;;;;;;;;;;6211569;23;20008;-83
2021/06/05 10:39:50;;;;;;;1.42;1.33;;;;;;;;;;6208453;23;20043;-82
2021/06/05 10:42:29;;;;;;;0.50;0.40;;;;;;;;;;6211217;23;20015;-82
2021/06/05 10:44:56;;;;;;;1.00;0.55;;;;;;;;;;6209637;23;20015;-84
2021/06/05 10:47:27;;;;;;;0.30;0.25;;;;;;;;;;6210605;23;20026;-89
2021/06/05 10:50:04;;;;;;;0.60;0.45;;;;;;;;;;6208790;23;20016;-84
2021/06/05 10:52:30;;;;;;;;;;;;;;;;;;6209863;23;20016;-83
2021/06/05 10:55:09;;;;;;;0.40;0.20;;;;;;;;;;6208479;23;20328;-81
2021/06/05 10:57:40;;;;;;;0.43;0.30;;;;;;;;;;6236618;23;20075;-82
2021/06/05 11:00:10;;;;;;;0.22;0.20;;;;;;;;;;6209872;23;20161;-84
2021/06/05 11:02:36;;;;;;;0.60;0.55;;;;;;;;;;6212383;23;20044;-80
2021/06/05 11:05:04;;;;;;;0.77;0.57;;;;;;;;;;6210621;23;20349;-82
2021/06/05 11:07:32;;;;;;;10.55;4.70;;;;;;;;;;6209748;23;20016;-83
2021/06/05 11:10:06;;;;;;;1.88;1.33;;;;;;;;;;6207797;23;20502;-84
2021/06/05 11:12:33;;;;;;;1.20;0.60;;;;;;;;;;6187405;23;20033;-83
2021/06/05 11:15:00;;;;;;;0.32;0.28;;;;;;;;;;6207306;23;20083;-82
2021/06/05 11:17:26;;;;;;;1.05;0.73;;;;;;;;;;6207366;23;20039;-85
2021/06/05 11:20:06;;;;;;;0.40;0.30;;;;;;;;;;6179944;23;20434;-85
2021/06/05 11:22:54;;;;;;;0.50;0.30;;;;;;;;;;5089711;27;20395;-80
2021/06/05 11:25:20;;;;;;;0.30;0.30;;;;;;;;;;5077299;28;20047;-81
2021/06/05 11:27:47;;;;;;;0.65;0.38;;;;;;;;;;5067043;28;20078;-82
2021/06/05 11:30:22;;;;;;;0.25;0.25;;;;;;;;;;5080299;28;20081;-82
2021/06/05 11:32:59;;;;;;;8.60;0.60;;;;;;;;;;5082907;27;20040;-83
2021/06/05 11:35:37;;;;;;;0.30;0.20;;;;;;;;;;5083121;28;20033;-81
2021/06/05 11:38:05;;;;;;;0.40;0.30;;;;;;;;;;5083500;28;20032;-82
2021/06/05 11:40:50;;;;;;;0.52;0.50;;;;;;;;;;5073379;28;20035;-82
2021/06/05 11:43:21;;;;;;;0.60;0.52;;;;;;;;;;5075992;28;20024;-80
2021/06/05 11:45:58;;;;;;;1.00;0.85;;;;;;;;;;5077504;28;20063;-82
2021/06/05 11:48:39;;;;;;;0.50;0.50;;;;;;;;;;5081336;28;20395;-79
2021/06/05 11:51:16;;;;;;;0.55;0.43;;;;;;;;;;5076003;28;20555;-79
2021/06/05 11:53:43;;;;;;;0.55;0.40;;;;;;;;;;5081291;28;20024;-80
2021/06/05 11:56:10;;;;;;;0.43;0.43;;;;;;;;;;5079092;28;20032;-79
2021/06/05 11:58:37;;;;;;;0.30;0.30;;;;;;;;;;5078627;28;20032;-80
2021/06/05 12:01:04;;;;;;;0.20;0.20;;;;;;;;;;5074457;28;20623;-82
2021/06/05 12:03:39;;;;;;;0.63;0.28;;;;;;;;;;5082034;28;20129;-78
2021/06/05 12:06:10;;;;;;;0.50;0.50;;;;;;;;;;5080082;28;20036;-79
2021/06/05 12:08:36;;;;;;;0.43;0.40;;;;;;;;;;5086913;28;20035;-82
2021/06/05 12:11:16;;;;;;;0.80;0.38;;;;;;;;;;5076859;28;20481;-83
2021/06/05 12:13:43;;;;;;;0.55;0.40;;;;;;;;;;5084041;28;20122;-81
2021/06/05 12:16:14;;;;;;;0.40;0.30;;;;;;;;;;5078710;28;20037;-81
2021/06/05 12:18:41;;;;;;;0.30;0.20;;;;;;;;;;5076545;28;20851;-81
2021/06/05 12:21:22;;;;;;;0.77;0.30;;;;;;;;;;5065270;28;20102;-81
2021/06/05 12:23:51;;;;;;;1.02;0.50;;;;;;;;;;5075307;28;20099;-81
2021/06/05 12:26:19;;;;;;;0.30;0.20;;;;;;;;;;5058720;28;20024;-82
2021/06/05 12:28:47;;;;;;;0.57;0.40;;;;;;;;;;5069588;28;20024;-80
2021/06/05 12:31:15;;;;;;;0.30;0.22;;;;;;;;;;5076612;28;20126;-81
2021/06/05 12:33:43;;;;;;;0.35;0.20;;;;;;;;;;5058643;28;20028;-82
2021/06/05 12:36:17;;;;;;;0.55;0.45;;;;;;;;;;5052114;28;20107;-83
2021/06/05 12:38:44;;;;;;;0.40;0.30;;;;;;;;;;5058383;28;20104;-82
2021/06/05 12:41:12;;;;;;;0.50;0.28;;;;;;;;;;5061307;28;20082;-83
2021/06/05 12:43:42;;;;;;;0.52;0.45;;;;;;;;;;5067447;28;20039;-79
2021/06/05 12:46:10;;;;;;;0.45;0.43;;;;;;;;;;5066840;28;20021;-79
2021/06/05 12:48:37;;;;;;;0.75;0.35;;;;;;;;;;5063503;28;20024;-79
2021/06/05 12:51:05;;;;;;;0.38;0.25;;;;;;;;;;5065159;28;20044;-80
2021/06/05 12:53:32;;;;;;;0.22;0.00;;;;;;;;;;5062681;28;20039;-80
2021/06/05 12:56:05;;;;;;;0.28;0.28;;;;;;;;;;5048536;28;20588;-79
2021/06/05 12:58:37;;;;;;;0.22;0.22;;;;;;;;;;5062950;28;20040;-80
2021/06/05 13:01:23;;;;;;;0.57;0.45;;;;;;;;;;5056268;28;20060;-82
2021/06/05 13:03:49;;;;;;;0.27;0.17;;;;;;;;;;5058335;28;20136;-81
2021/06/05 13:06:19;;;;;;;0.30;0.20;;;;;;;;;;5057993;28;20037;-79
2021/06/05 13:08:47;;;;;;;0.20;0.13;;;;;;;;;;5056406;28;20039;-80
2021/06/05 13:11:33;;;;;;;0.47;0.47;;;;;;;;;;5052087;28;20121;-78
2021/06/05 13:14:07;;;;;;;0.60;0.35;;;;;;;;;;5054002;28;20111;-80
2021/06/05 13:16:34;;;;;;;0.85;0.30;;;;;;;;;;5059916;28;20578;-81
2021/06/05 13:19:18;;;;;;;0.50;0.30;;;;;;;;;;5050351;28;20032;-80
2021/06/05 13:21:45;;;;;;;0.68;0.22;;;;;;;;;;5062168;28;20040;-80
2021/06/05 13:24:22;;;;;;;0.63;0.45;;;;;;;;;;5060159;28;20021;-82
2021/06/05 13:26:56;;;;;;;0.17;0.13;;;;;;;;;;5063320;28;20028;-83
2021/06/05 13:29:36;;;;;;;0.30;0.30;;;;;;;;;;5060285;28;21589;-81
2021/06/05 13:32:04;;;;;;;0.50;0.50;;;;;;;;;;5056175;28;20400;-82
2021/06/05 13:34:33;;;;;;;0.45;0.30;;;;;;;;;;5063862;28;20028;-80
2021/06/05 13:37:18;;;;;;;0.60;0.40;;;;;;;;;;5055383;28;20044;-81
2021/06/05 13:39:45;;;;;;;0.20;0.10;;;;;;;;;;5059667;28;20421;-78
2021/06/05 13:42:11;;;;;;;0.15;0.10;;;;;;;;;;5051980;28;20059;-80
2021/06/05 13:44:38;;;;;;;0.35;0.13;;;;;;;;;;5056086;28;20124;-82
2021/06/05 13:47:07;;;;;;;0.68;0.25;;;;;;;;;;5040959;28;20149;-81
2021/06/05 13:49:34;;;;;;;0.40;0.20;;;;;;;;;;5062111;28;20028;-78
2021/06/05 13:52:28;;;;;;;0.25;0.20;;;;;;;;;;5062261;28;20032;-80
2021/06/05 13:54:57;;;;;;;0.10;0.10;;;;;;;;;;5057416;28;20079;-80
2021/06/05 13:57:24;;;;;;;0.20;0.10;;;;;;;;;;5065884;28;20031;-80
2021/06/05 13:59:51;;;;;;;0.10;0.10;;;;;;;;;;5063045;28;20035;-79
2021/06/05 14:02:20;;;;;;;0.10;0.00;;;;;;;;;;5072700;28;21725;-80
2021/06/05 14:04:49;;;;;;;12.93;0.40;;;;;;;;;;5060515;28;20055;-80
2021/06/05 14:07:16;;;;;;;0.08;0.00;;;;;;;;;;5061857;28;20146;-81
2021/06/05 14:09:45;;;;;;;0.10;0.10;;;;;;;;;;5074004;28;20035;-80
2021/06/05 14:12:13;;;;;;;0.30;0.30;;;;;;;;;;5057044;28;20041;-81
2021/06/05 14:14:39;;;;;;;0.10;0.00;;;;;;;;;;5052671;28;20524;-81
2021/06/05 14:17:06;;;;;;;0.30;0.10;;;;;;;;;;5052200;28;20415;-82
2021/06/05 14:19:32;;;;;;;0.28;0.20;;;;;;;;;;5064126;28;21586;-82
2021/06/05 14:21:58;;;;;;;0.00;0.00;;;;;;;;;;5054850;28;20044;-80
2021/06/05 14:24:25;;;;;;;0.43;0.05;;;;;;;;;;5038940;28;20170;-81
2021/06/05 14:26:51;;;;;;;0.08;0.08;;;;;;;;;;5066438;28;20103;-81
2021/06/05 14:29:18;;;;;;;0.40;0.35;;;;;;;;;;5058022;28;20067;-80
2021/06/05 14:31:44;;;;;;;0.20;0.20;;;;;;;;;;5065696;28;20039;-80
2021/06/05 14:34:10;;;;;;;0.10;0.05;;;;;;;;;;5050789;28;20128;-80
2021/06/05 14:36:37;;;;;;;0.32;0.10;;;;;;;;;;5051139;28;20036;-79
2021/06/05 14:39:03;;;;;;;0.77;0.65;;;;;;;;;;5061466;28;20051;-81
2021/06/05 14:41:30;;;;;;;0.00;0.00;;;;;;;;;;5061947;28;20028;-81
2021/06/05 14:43:56;;;;;;;0.08;0.08;;;;;;;;;;5054712;28;20093;-81
2021/06/05 14:46:22;;;;;;;0.70;0.30;;;;;;;;;;5056659;28;20686;-82
2021/06/05 14:48:50;;;;;;;0.30;0.30;;;;;;;;;;5054561;28;20023;-80
2021/06/05 14:51:17;;;;;;;0.05;0.00;;;;;;;;;;5064419;28;20040;-80
2021/06/05 14:53:44;;;;;;;0.10;0.10;;;;;;;;;;5063426;28;20032;-80
2021/06/05 14:56:13;;;;;;;0.00;0.00;;;;;;;;;;5067160;28;20039;-79